Time;durP1;ratioP1;P1;durP2;ratioP2;P2;SDS_P1;SDS_P2;PMS_P1;PMS_P2;Temp;Humidity;BMP_temperature;BMP_pressure;BME280_temperature;BME280_humidity;BME280_pressure;Samples;Min_cycle;Max_cycle;Signal;HPM_P1;HPM_P2
2022/08/07 00:00:53;;;;;;;5.35;4.05;;;;;;;23.96;40.81;93633.22;5063527;28;20024;-75
2022/08/07 00:03:19;;;;;;;4.00;3.60;;;;;;;23.96;40.78;93622.34;5036770;28;20048;-75
2022/08/07 00:05:44;;;;;;;4.07;3.70;;;;;;;24.07;41.06;93641.25;5062773;28;20100;-75
2022/08/07 00:08:10;;;;;;;3.58;3.13;;;;;;;23.99;40.62;93631.66;5062078;28;20073;-75
2022/08/07 00:10:36;;;;;;;4.50;3.63;;;;;;;24.06;40.78;93630.78;5060273;28;20036;-74
2022/08/07 00:13:03;;;;;;;3.92;3.53;;;;;;;23.96;40.73;93622.34;5045610;28;20020;-76
2022/08/07 00:15:30;;;;;;;4.75;3.35;;;;;;;24.17;41.03;93648.56;5054552;28;20020;-77
2022/08/07 00:17:55;;;;;;;4.00;3.50;;;;;;;23.88;40.83;93603.81;5062429;28;20508;-75
2022/08/07 00:20:21;;;;;;;3.22;2.92;;;;;;;24.16;41.45;93657.88;5068173;28;20030;-75
2022/08/07 00:22:46;;;;;;;4.30;3.45;;;;;;;23.93;41.11;93631.31;5060724;28;20543;-76
2022/08/07 00:25:12;;;;;;;4.78;3.97;;;;;;;23.96;41.42;93646.00;5062087;28;20612;-76
2022/08/07 00:27:39;;;;;;;6.75;4.38;;;;;;;23.98;41.64;93649.88;5068399;28;20021;-76
2022/08/07 00:30:05;;;;;;;3.95;3.38;;;;;;;24.00;41.57;93657.63;5048547;28;20072;-75
2022/08/07 00:32:31;;;;;;;4.57;3.97;;;;;;;23.89;41.59;93646.88;5067413;28;20755;-75
2022/08/07 00:34:56;;;;;;;4.43;3.90;;;;;;;23.80;41.63;93632.22;5059277;28;20041;-76
2022/08/07 00:37:23;;;;;;;4.13;3.65;;;;;;;23.92;41.71;93656.91;5063740;28;20604;-76
2022/08/07 00:39:49;;;;;;;4.97;3.63;;;;;;;23.81;41.50;93647.31;5065114;28;20516;-76
2022/08/07 00:42:14;;;;;;;3.83;3.53;;;;;;;23.71;41.62;93629.94;5063159;28;20043;-75
2022/08/07 00:44:40;;;;;;;5.65;3.55;;;;;;;23.72;41.70;93636.91;5067278;28;20136;-75
2022/08/07 00:47:07;;;;;;;4.85;3.85;;;;;;;23.90;41.82;93661.22;5048773;28;20483;-75
2022/08/07 00:49:33;;;;;;;8.80;3.42;;;;;;;23.89;41.91;93656.94;5070435;28;20021;-76
2022/08/07 00:51:58;;;;;;;7.13;4.18;;;;;;;23.77;41.72;93636.47;5061786;28;20013;-76
2022/08/07 00:54:24;;;;;;;3.75;3.45;;;;;;;23.87;41.89;93651.91;5046446;28;20082;-75
2022/08/07 00:56:50;;;;;;;4.22;3.38;;;;;;;23.87;42.10;93657.34;5053300;28;20042;-76
2022/08/07 00:59:16;;;;;;;6.40;3.30;;;;;;;23.81;41.94;93650.78;5060943;28;20488;-75
2022/08/07 01:01:41;;;;;;;5.10;4.20;;;;;;;23.88;41.93;93655.41;5067709;28;20090;-76
2022/08/07 01:04:07;;;;;;;4.68;3.78;;;;;;;23.90;41.89;93663.94;5063979;28;20625;-76
2022/08/07 01:06:34;;;;;;;4.60;3.97;;;;;;;23.89;42.06;93660.44;5061243;28;20103;-76
2022/08/07 01:09:00;;;;;;;6.25;3.85;;;;;;;23.90;41.90;93659.28;5062755;28;20024;-76
2022/08/07 01:11:27;;;;;;;4.15;3.75;;;;;;;23.79;41.75;93636.88;5068590;28;20028;-75
2022/08/07 01:13:52;;;;;;;4.45;3.70;;;;;;;23.77;41.85;93639.19;5066771;28;20044;-75
2022/08/07 01:16:18;;;;;;;4.53;3.90;;;;;;;23.82;41.99;93652.34;5069244;28;20119;-76
2022/08/07 01:18:44;;;;;;;4.38;3.97;;;;;;;23.71;42.14;93642.75;5065882;28;20035;-76
2022/08/07 01:21:14;;;;;;;7.03;4.15;;;;;;;23.63;42.03;93625.75;5063384;28;20020;-76
2022/08/07 01:23:42;;;;;;;4.53;3.53;;;;;;;23.59;41.94;93635.84;5066886;28;20028;-76
2022/08/07 01:26:10;;;;;;;5.65;4.00;;;;;;;23.76;42.24;93661.34;5061535;28;20124;-76
2022/08/07 01:28:36;;;;;;;4.50;3.97;;;;;;;23.61;42.27;93647.09;5063722;28;20032;-76
2022/08/07 01:31:02;;;;;;;4.43;3.80;;;;;;;23.65;42.24;93669.56;5065190;28;20503;-75
2022/08/07 01:33:28;;;;;;;4.22;3.75;;;;;;;23.63;42.57;93677.31;5063982;28;20058;-75
2022/08/07 01:35:56;;;;;;;4.60;3.63;;;;;;;23.48;42.82;93648.69;5065455;28;20021;-76
2022/08/07 01:38:22;;;;;;;4.93;3.95;;;;;;;23.47;42.96;93658.78;5060647;28;20074;-76
2022/08/07 01:40:49;;;;;;;7.38;4.85;;;;;;;23.45;42.93;93655.72;5031211;28;20579;-76
2022/08/07 01:43:15;;;;;;;4.82;4.30;;;;;;;23.42;42.83;93650.28;5024377;28;20413;-76
2022/08/07 01:45:41;;;;;;;5.00;4.50;;;;;;;23.47;42.88;93666.16;5026724;28;20031;-75
2022/08/07 01:48:07;;;;;;;5.63;4.63;;;;;;;23.48;42.63;93668.47;5022839;28;20119;-76
2022/08/07 01:50:35;;;;;;;5.20;3.60;;;;;;;23.58;42.78;93691.31;5023039;28;20033;-76
2022/08/07 01:53:02;;;;;;;7.05;4.22;;;;;;;23.40;43.22;93675.13;5023758;28;20109;-76
2022/08/07 01:55:41;;;;;;;5.03;4.53;;;;;;;23.51;43.18;93696.81;5026761;28;20036;-76
2022/08/07 01:58:09;;;;;;;5.32;4.15;;;;;;;23.50;43.86;93716.97;5027678;28;20033;-75
2022/08/07 02:00:36;;;;;;;6.68;4.97;;;;;;;23.49;43.58;93731.69;5019810;28;20079;-75
2022/08/07 02:03:08;;;;;;;6.70;4.65;;;;;;;23.33;43.84;93737.56;5033252;28;20053;-75
2022/08/07 02:05:57;;;;;;;5.85;5.25;;;;;;;23.13;43.47;93775.25;5023996;28;20086;-75
2022/08/07 02:08:25;;;;;;;9.38;6.20;;;;;;;23.15;43.45;93789.22;5025198;28;20056;-76
2022/08/07 02:10:55;;;;;;;8.98;6.15;;;;;;;23.06;44.06;93793.50;5024673;28;20036;-76
2022/08/07 02:13:23;;;;;;;10.38;7.05;;;;;;;23.08;44.72;93778.38;5028237;28;20119;-76
2022/08/07 02:15:50;;;;;;;7.10;5.97;;;;;;;23.29;46.19;93787.59;5023476;28;20033;-76
2022/08/07 02:18:18;;;;;;;6.95;6.20;;;;;;;23.28;46.19;93792.25;5026935;28;20021;-76
2022/08/07 02:20:46;;;;;;;8.68;6.15;;;;;;;23.11;47.08;93796.59;5022675;28;20390;-75
2022/08/07 02:23:13;;;;;;;9.50;6.13;;;;;;;23.00;48.19;93798.56;5025334;28;20067;-75
2022/08/07 02:25:40;;;;;;;9.90;6.22;;;;;;;22.94;48.20;93794.69;5023235;28;20465;-75
2022/08/07 02:28:08;;;;;;;6.35;5.65;;;;;;;22.87;47.47;93775.75;5028014;28;20044;-76
2022/08/07 02:30:35;;;;;;;7.35;5.90;;;;;;;22.97;47.92;93788.50;5021954;28;20032;-76
2022/08/07 02:33:03;;;;;;;5.38;4.68;;;;;;;22.78;46.59;93767.19;5024068;28;20117;-75
2022/08/07 02:35:31;;;;;;;8.23;5.18;;;;;;;22.83;47.92;93734.25;5025148;28;20032;-75
2022/08/07 02:37:59;;;;;;;5.57;4.38;;;;;;;22.89;48.87;93732.72;5029535;28;20064;-76
2022/08/07 02:40:25;;;;;;;7.22;4.35;;;;;;;22.81;49.33;93708.72;5037549;28;20044;-76
2022/08/07 02:42:52;;;;;;;4.28;3.88;;;;;;;22.77;50.02;93697.88;5065950;28;20015;-76
2022/08/07 02:45:21;;;;;;;5.57;4.07;;;;;;;22.72;50.90;93706.41;5063922;28;20025;-76
2022/08/07 02:47:47;;;;;;;3.67;3.08;;;;;;;22.51;51.15;93699.13;5066105;28;20028;-75
2022/08/07 02:50:13;;;;;;;4.60;4.13;;;;;;;22.58;51.76;93701.81;5062000;28;20035;-75
2022/08/07 02:52:46;;;;;;;3.20;2.72;;;;;;;22.33;52.32;93684.06;5059267;28;20537;-76
2022/08/07 02:55:20;;;;;;;6.70;3.78;;;;;;;22.33;53.22;93678.66;5066546;28;20046;-76
2022/08/07 02:57:46;;;;;;;4.43;3.83;;;;;;;22.33;53.14;93673.22;5061664;28;20020;-76
2022/08/07 03:00:13;;;;;;;4.30;3.60;;;;;;;22.35;53.83;93671.66;5059122;28;20021;-75
2022/08/07 03:02:45;;;;;;;4.85;3.72;;;;;;;22.26;54.69;93685.63;5065049;28;20388;-75
2022/08/07 03:05:13;;;;;;;3.83;3.28;;;;;;;22.19;54.70;93679.44;5060738;28;20029;-76
2022/08/07 03:07:40;;;;;;;4.35;2.97;;;;;;;22.33;54.88;93689.50;5064546;28;20044;-76
2022/08/07 03:10:07;;;;;;;4.43;3.80;;;;;;;22.07;56.21;93677.88;5034725;28;20167;-76
2022/08/07 03:12:34;;;;;;;5.80;3.50;;;;;;;22.00;57.06;93671.72;5061656;28;20522;-75
2022/08/07 03:15:00;;;;;;;5.32;4.63;;;;;;;21.59;58.86;93646.97;5064129;28;20054;-76
2022/08/07 03:17:26;;;;;;;4.57;3.55;;;;;;;21.68;58.92;93660.88;5042899;28;20033;-76
2022/08/07 03:19:53;;;;;;;4.47;3.78;;;;;;;21.67;58.11;93653.91;5044064;28;20933;-76
2022/08/07 03:22:20;;;;;;;6.43;3.92;;;;;;;21.63;57.48;93651.22;5061785;28;20028;-76
2022/08/07 03:24:46;;;;;;;3.97;3.33;;;;;;;21.16;58.40;93619.88;5043703;28;20426;-76
2022/08/07 03:27:13;;;;;;;4.63;4.03;;;;;;;21.27;57.10;93617.16;5065572;28;20126;-76
2022/08/07 03:29:48;;;;;;;3.60;3.30;;;;;;;21.74;56.19;93670.19;5063557;28;20024;-76
2022/08/07 03:32:16;;;;;;;4.78;3.70;;;;;;;21.80;55.28;93663.22;5047544;28;20650;-75
2022/08/07 03:34:44;;;;;;;4.45;4.05;;;;;;;21.67;55.93;93626.84;5060843;28;20487;-76
2022/08/07 03:37:10;;;;;;;4.05;3.63;;;;;;;22.20;56.19;93676.31;5061186;28;20056;-75
2022/08/07 03:39:37;;;;;;;7.13;3.38;;;;;;;22.23;57.63;93683.69;5045818;28;20032;-76
2022/08/07 03:42:04;;;;;;;4.72;3.90;;;;;;;22.20;56.96;93665.47;5059096;28;21315;-76
2022/08/07 03:44:32;;;;;;;6.35;4.20;;;;;;;22.36;56.58;93669.72;5063253;28;20570;-75
2022/08/07 03:46:57;;;;;;;9.18;5.10;;;;;;;22.52;56.34;93691.75;5062545;28;20016;-76
2022/08/07 03:49:23;;;;;;;5.00;4.13;;;;;;;22.43;55.57;93662.38;5067214;28;20031;-75
2022/08/07 03:51:50;;;;;;;4.28;3.75;;;;;;;22.62;55.65;93677.41;5053388;28;20119;-76
2022/08/07 03:54:16;;;;;;;5.03;4.13;;;;;;;22.74;56.51;93690.53;5062131;28;20028;-76
2022/08/07 03:56:43;;;;;;;5.93;4.63;;;;;;;22.77;56.81;93692.47;5067304;28;20024;-76
2022/08/07 03:59:11;;;;;;;7.82;5.05;;;;;;;22.93;55.16;93722.63;5064359;28;20032;-76
2022/08/07 04:01:40;;;;;;;6.93;5.55;;;;;;;22.99;55.27;93725.72;5065999;28;20442;-76
2022/08/07 04:04:06;;;;;;;8.05;5.70;;;;;;;22.87;54.63;93729.66;5064099;28;20039;-76
2022/08/07 04:06:32;;;;;;;6.35;5.25;;;;;;;22.63;54.93;93708.78;5068685;28;20020;-76
2022/08/07 04:08:58;;;;;;;6.15;4.55;;;;;;;22.34;56.49;93715.44;5066029;28;20028;-76
2022/08/07 04:11:24;;;;;;;7.47;5.28;;;;;;;22.20;56.43;93694.50;5065541;28;20025;-75
2022/08/07 04:13:50;;;;;;;7.00;5.88;;;;;;;22.48;55.79;93724.31;5067096;28;20045;-76
2022/08/07 04:16:16;;;;;;;6.78;5.53;;;;;;;22.30;55.83;93691.81;5064527;28;20032;-76
2022/08/07 04:18:41;;;;;;;7.57;5.25;;;;;;;22.28;56.01;93715.81;5066361;28;20036;-76
2022/08/07 04:21:07;;;;;;;7.32;5.25;;;;;;;22.40;55.41;93705.72;5065663;28;20110;-75
2022/08/07 04:23:33;;;;;;;7.07;5.13;;;;;;;22.42;54.93;93679.00;5062984;28;20514;-75
2022/08/07 04:25:59;;;;;;;9.93;5.15;;;;;;;22.84;54.75;93716.81;5069112;28;20038;-76
2022/08/07 04:28:25;;;;;;;5.93;4.28;;;;;;;22.92;55.09;93706.78;5065063;28;20029;-75
2022/08/07 04:30:50;;;;;;;6.32;4.80;;;;;;;23.01;55.11;93718.75;5063852;28;20029;-75
2022/08/07 04:33:16;;;;;;;4.53;3.95;;;;;;;23.14;55.47;93727.97;5062768;28;20494;-76
2022/08/07 04:35:46;;;;;;;5.55;4.80;;;;;;;23.24;56.49;93729.09;5066712;28;20025;-76
2022/08/07 04:38:13;;;;;;;4.75;4.28;;;;;;;23.24;55.07;93718.25;5066050;28;20471;-76
2022/08/07 04:40:41;;;;;;;4.60;4.18;;;;;;;23.00;55.14;93678.44;5062225;28;20036;-75
2022/08/07 04:43:07;;;;;;;4.70;4.30;;;;;;;23.41;54.96;93743.75;5066456;28;20413;-75
2022/08/07 04:45:44;;;;;;;6.43;5.15;;;;;;;23.44;54.71;93735.56;5049224;28;20067;-74
2022/08/07 04:48:36;;;;;;;5.60;4.10;;;;;;;23.49;54.58;93747.97;5070204;28;20032;-75
2022/08/07 04:51:14;;;;;;;6.43;3.72;;;;;;;23.52;55.16;93742.53;5046761;28;20487;-75
2022/08/07 04:53:52;;;;;;;5.25;4.05;;;;;;;23.56;54.87;93746.00;5059370;28;20028;-75
2022/08/07 04:56:23;;;;;;;6.15;4.63;;;;;;;23.60;54.68;93743.28;5043675;28;20533;-75
2022/08/07 04:59:01;;;;;;;5.38;4.35;;;;;;;23.47;53.73;93732.06;5061632;28;20020;-74
2022/08/07 05:01:41;;;;;;;5.28;4.32;;;;;;;23.53;53.42;93737.88;5066767;28;20032;-74
2022/08/07 05:04:15;;;;;;;5.03;4.53;;;;;;;23.67;54.14;93748.66;5064451;28;20052;-74
2022/08/07 05:07:00;;;;;;;6.53;4.57;;;;;;;23.77;53.40;93747.81;5062621;28;20112;-75
2022/08/07 05:09:41;;;;;;;4.70;4.13;;;;;;;23.83;52.64;93757.09;5045296;28;20673;-74
2022/08/07 05:12:09;;;;;;;14.95;5.15;;;;;;;23.65;51.35;93745.56;5050549;28;20029;-74
2022/08/07 05:15:16;;;;;;;6.90;4.70;;;;;;;23.49;52.18;93737.91;5067163;28;20475;-75
2022/08/07 05:17:47;;;;;;;5.93;4.80;;;;;;;23.39;51.81;93746.06;5049450;28;20702;-75
2022/08/07 05:20:16;;;;;;;5.72;4.65;;;;;;;23.57;51.68;93765.78;5066826;28;20056;-75
2022/08/07 05:22:44;;;;;;;5.43;4.82;;;;;;;23.69;51.76;93768.03;5061341;28;20019;-75
2022/08/07 05:25:13;;;;;;;6.60;5.35;;;;;;;23.79;51.14;93753.63;5066774;28;20526;-75
2022/08/07 05:27:41;;;;;;;6.82;4.80;;;;;;;24.08;50.50;93767.00;5064628;28;20032;-74
2022/08/07 05:30:07;;;;;;;8.52;5.20;;;;;;;24.07;50.12;93749.94;5044146;28;20842;-74
2022/08/07 05:32:36;;;;;;;5.93;4.95;;;;;;;24.24;50.12;93761.88;5066172;28;20035;-75
2022/08/07 05:35:02;;;;;;;8.95;5.45;;;;;;;23.74;50.23;93748.63;5061368;28;20025;-75
2022/08/07 05:37:30;;;;;;;6.18;5.13;;;;;;;23.91;50.39;93753.13;5066943;28;20060;-75
2022/08/07 05:39:56;;;;;;;6.68;5.30;;;;;;;23.57;51.03;93757.63;5063302;28;20048;-75
2022/08/07 05:42:22;;;;;;;5.82;4.68;;;;;;;23.74;51.31;93759.47;5061608;28;20110;-74
2022/08/07 05:44:48;;;;;;;5.93;4.78;;;;;;;24.06;51.00;93761.19;5065609;28;20021;-75
2022/08/07 05:47:18;;;;;;;5.88;4.68;;;;;;;24.31;50.19;93778.88;5045482;28;20028;-75
2022/08/07 05:49:47;;;;;;;5.65;4.50;;;;;;;24.38;49.94;93775.31;5065009;28;20107;-75
2022/08/07 05:52:13;;;;;;;7.30;4.40;;;;;;;24.62;49.57;93785.22;5068330;28;20020;-74
2022/08/07 05:54:38;;;;;;;6.10;5.18;;;;;;;24.79;49.61;93794.38;5059735;28;20358;-75
2022/08/07 05:57:05;;;;;;;6.70;4.90;;;;;;;24.91;49.92;93801.28;5064181;28;20387;-75
2022/08/07 05:59:35;;;;;;;5.95;5.13;;;;;;;24.98;49.29;93796.50;5065758;28;20028;-75
2022/08/07 06:02:03;;;;;;;5.95;4.78;;;;;;;25.10;49.25;93804.19;5057964;28;20024;-75
2022/08/07 06:04:29;;;;;;;7.50;5.13;;;;;;;25.09;48.77;93797.19;5055312;28;20269;-75
2022/08/07 06:06:55;;;;;;;7.93;6.03;;;;;;;25.16;49.09;93812.66;5064482;28;20038;-75
2022/08/07 06:09:21;;;;;;;6.60;5.03;;;;;;;25.12;49.02;93784.72;5047524;28;20020;-75
2022/08/07 06:11:46;;;;;;;7.93;5.88;;;;;;;25.15;49.21;93783.91;5062265;28;20053;-75
2022/08/07 06:14:12;;;;;;;6.82;5.70;;;;;;;25.35;49.00;93798.47;5061183;28;20055;-75
2022/08/07 06:16:39;;;;;;;6.32;5.40;;;;;;;25.49;48.13;93814.63;5062904;28;20013;-75
2022/08/07 06:19:05;;;;;;;8.65;4.90;;;;;;;25.39;48.10;93804.66;5059217;28;20028;-75
2022/08/07 06:21:31;;;;;;;7.68;6.28;;;;;;;25.33;47.64;93779.03;5065702;28;20381;-75
2022/08/07 06:23:57;;;;;;;7.25;5.50;;;;;;;25.25;48.07;93800.13;5062024;28;20039;-75
2022/08/07 06:26:24;;;;;;;5.28;4.72;;;;;;;25.40;47.88;93817.09;5062301;28;20424;-75
2022/08/07 06:28:53;;;;;;;5.50;4.38;;;;;;;25.54;46.51;93816.91;5063736;28;20036;-74
2022/08/07 06:31:20;;;;;;;4.88;4.18;;;;;;;25.67;45.98;93817.13;5052103;28;20040;-75
2022/08/07 06:33:46;;;;;;;8.80;5.28;;;;;;;25.69;45.77;93804.66;5064046;28;20077;-75
2022/08/07 06:36:12;;;;;;;6.07;4.60;;;;;;;25.91;44.96;93818.03;5062974;28;20093;-74
2022/08/07 06:38:38;;;;;;;6.30;4.30;;;;;;;26.01;45.38;93811.63;5064727;28;20024;-74
2022/08/07 06:41:08;;;;;;;6.00;4.28;;;;;;;26.13;45.34;93813.81;5065556;28;20085;-75
2022/08/07 06:43:36;;;;;;;4.60;3.70;;;;;;;26.20;42.41;93810.22;5061690;28;20024;-75
2022/08/07 06:46:04;;;;;;;6.03;4.03;;;;;;;26.22;41.23;93805.88;5062510;28;20025;-74
2022/08/07 06:48:30;;;;;;;6.22;3.97;;;;;;;26.15;41.16;93795.09;5043924;28;20024;-74
2022/08/07 06:50:59;;;;;;;4.35;3.95;;;;;;;26.19;41.09;93805.94;5060091;28;20025;-75
2022/08/07 06:53:26;;;;;;;4.60;4.15;;;;;;;26.29;40.97;93805.78;5061387;28;20086;-75
2022/08/07 06:55:53;;;;;;;5.97;4.50;;;;;;;26.19;42.28;93808.66;5064322;28;20020;-74
2022/08/07 06:58:22;;;;;;;5.93;4.85;;;;;;;26.22;42.76;93794.97;5063557;28;20024;-75
2022/08/07 07:00:49;;;;;;;8.15;4.82;;;;;;;26.32;42.40;93810.41;5048565;28;20370;-75
2022/08/07 07:03:14;;;;;;;5.90;4.28;;;;;;;26.42;42.71;93817.63;5063207;28;20024;-74
2022/08/07 07:05:40;;;;;;;5.40;4.18;;;;;;;26.45;42.39;93805.88;5064702;28;20024;-74
2022/08/07 07:08:07;;;;;;;5.90;4.82;;;;;;;26.45;41.78;93814.06;5063874;28;20040;-75
2022/08/07 07:10:34;;;;;;;7.22;4.72;;;;;;;26.35;41.59;93814.25;5063754;28;20055;-75
2022/08/07 07:13:12;;;;;;;5.85;4.80;;;;;;;26.34;42.65;93821.66;5062745;28;20418;-75
2022/08/07 07:15:43;;;;;;;5.85;4.28;;;;;;;26.15;42.45;93797.81;5061988;28;20033;-75
2022/08/07 07:18:14;;;;;;;6.63;4.55;;;;;;;26.29;42.90;93819.41;5062481;28;20036;-75
2022/08/07 07:21:20;;;;;;;5.75;4.78;;;;;;;26.21;41.62;93815.22;5064538;28;20024;-74
2022/08/07 07:23:47;;;;;;;7.93;5.45;;;;;;;26.22;42.55;93821.47;5045374;28;20040;-75
2022/08/07 07:26:16;;;;;;;6.15;4.55;;;;;;;26.17;42.99;93800.88;5070664;28;20020;-75
2022/08/07 07:28:47;;;;;;;6.38;5.50;;;;;;;26.29;41.85;93811.22;5034168;28;20028;-75
2022/08/07 07:31:39;;;;;;;6.18;4.55;;;;;;;26.22;43.04;93807.81;5066203;28;20016;-74
2022/08/07 07:34:08;;;;;;;5.68;5.15;;;;;;;26.25;41.91;93821.41;5064426;28;20028;-75
2022/08/07 07:36:36;;;;;;;7.55;5.03;;;;;;;26.09;41.78;93813.09;5064471;28;20123;-75
2022/08/07 07:39:04;;;;;;;6.13;4.70;;;;;;;26.15;41.35;93816.91;5048923;28;20029;-74
2022/08/07 07:41:32;;;;;;;5.18;4.47;;;;;;;26.16;42.04;93821.16;5066891;28;20036;-74
2022/08/07 07:43:59;;;;;;;6.82;4.93;;;;;;;26.23;42.91;93823.78;5067339;28;20391;-75
2022/08/07 07:46:27;;;;;;;5.63;4.65;;;;;;;26.30;43.37;93834.56;5064430;28;20023;-75
2022/08/07 07:48:54;;;;;;;6.20;4.65;;;;;;;26.39;41.85;93825.88;5079012;28;20101;-75
2022/08/07 07:51:21;;;;;;;7.15;5.03;;;;;;;26.38;40.33;93818.88;5064772;28;20612;-74
2022/08/07 07:53:49;;;;;;;5.78;4.90;;;;;;;26.40;40.01;93836.34;5065184;28;20132;-75
2022/08/07 07:56:16;;;;;;;7.38;6.25;;;;;;;26.28;39.50;93836.94;5038191;28;20026;-75
2022/08/07 07:58:43;;;;;;;10.13;8.70;;;;;;;26.08;40.00;93833.34;5068571;28;20148;-75
2022/08/07 08:01:10;;;;;;;11.30;7.72;;;;;;;26.03;40.44;93836.53;5065379;28;20050;-74
2022/08/07 08:03:39;;;;;;;9.88;8.55;;;;;;;25.81;40.40;93832.53;5065873;28;20052;-74
2022/08/07 08:06:06;;;;;;;7.75;6.95;;;;;;;25.89;39.26;93844.91;5064229;28;20110;-75
2022/08/07 08:08:34;;;;;;;10.15;8.40;;;;;;;25.67;40.65;93823.34;5066095;28;20133;-75
2022/08/07 08:11:01;;;;;;;8.55;7.65;;;;;;;25.77;39.58;93842.69;5069006;28;20024;-74
2022/08/07 08:13:28;;;;;;;11.15;9.85;;;;;;;25.82;40.10;93828.59;5052826;28;20573;-74
2022/08/07 08:15:57;;;;;;;11.75;7.30;;;;;;;25.86;39.77;93849.16;5047314;28;20108;-74
2022/08/07 08:18:25;;;;;;;6.82;5.97;;;;;;;25.74;40.35;93836.09;5067667;28;20117;-75
2022/08/07 08:20:51;;;;;;;7.72;6.60;;;;;;;25.85;40.89;93846.88;5065918;28;20031;-75
2022/08/07 08:28:52;;;;;;;8.30;6.53;;;;;;;25.85;40.44;93830.53;5068474;28;20035;-75
2022/08/07 08:31:39;;;;;;;6.70;5.82;;;;;;;25.99;40.56;93849.44;5036462;28;20363;-75
2022/08/07 08:34:07;;;;;;;7.05;5.75;;;;;;;26.00;39.82;93848.25;5066483;28;20119;-74
2022/08/07 08:36:34;;;;;;;7.03;5.40;;;;;;;26.05;40.33;93840.41;5066858;28;20447;-74
2022/08/07 08:39:02;;;;;;;7.30;4.93;;;;;;;25.98;39.34;93835.03;5065920;28;20024;-75
2022/08/07 08:45:12;;;;;;;7.25;5.60;;;;;;;25.32;41.90;93848.28;5066782;28;20607;-75
2022/08/07 08:47:47;;;;;;;7.20;5.63;;;;;;;25.58;40.93;93853.03;5047517;28;20095;-75
2022/08/07 08:50:18;;;;;;;;;;;;;;;25.66;40.37;93857.19;5063310;28;20285;-74
2022/08/07 08:52:48;;;;;;;6.63;4.85;;;;;;;25.69;40.63;93850.19;5079693;28;20454;-75
2022/08/07 08:55:26;;;;;;;10.00;5.55;;;;;;;25.79;40.57;93853.94;5051266;28;20071;-75
2022/08/07 08:58:02;;;;;;;7.68;5.18;;;;;;;25.81;39.89;93852.34;5063492;28;20032;-76
2022/08/07 09:00:34;;;;;;;5.95;4.97;;;;;;;25.82;41.56;93847.66;5046777;28;20103;-75
2022/08/07 09:03:17;;;;;;;6.75;5.55;;;;;;;25.91;40.78;93842.56;5062747;28;20492;-75
2022/08/07 09:06:00;;;;;;;7.28;5.60;;;;;;;25.88;40.54;93835.16;5066346;28;20043;-75
2022/08/07 09:08:34;;;;;;;6.10;5.32;;;;;;;25.97;40.81;93849.06;5065858;28;20066;-75
2022/08/07 09:11:16;;;;;;;7.18;5.28;;;;;;;25.97;40.53;93843.63;5063521;28;20074;-74
2022/08/07 09:14:06;;;;;;;6.88;5.28;;;;;;;25.94;40.82;93828.09;5060295;28;20032;-75
2022/08/07 09:16:40;;;;;;;6.82;4.88;;;;;;;26.03;40.85;93841.97;5063897;28;20032;-75
2022/08/07 09:19:43;;;;;;;6.28;5.10;;;;;;;25.96;40.50;93833.88;5062048;28;20051;-74
2022/08/07 09:22:42;;;;;;;6.97;5.32;;;;;;;26.05;40.09;93823.28;5059523;28;20291;-75
2022/08/07 09:25:29;;;;;;;6.63;4.65;;;;;;;26.02;40.48;93815.91;5062391;28;20472;-74
2022/08/07 09:27:58;;;;;;;6.80;5.18;;;;;;;26.16;40.00;93832.03;5051523;28;20055;-75
2022/08/07 09:30:31;;;;;;;6.82;5.38;;;;;;;26.12;39.42;93817.72;5066146;28;20759;-75
2022/08/07 09:33:15;;;;;;;6.80;5.00;;;;;;;26.12;39.66;93834.06;5046913;28;20036;-75
2022/08/07 09:35:57;;;;;;;6.38;5.10;;;;;;;25.91;39.50;93807.88;5064842;28;20609;-75
2022/08/07 09:38:35;;;;;;;7.85;6.15;;;;;;;26.08;39.42;93815.03;5048838;28;20032;-75
2022/08/07 09:41:22;;;;;;;7.07;5.15;;;;;;;26.04;39.35;93819.78;5062575;28;20053;-75
2022/08/07 09:44:06;;;;;;;5.07;4.55;;;;;;;26.00;39.79;93807.38;5046671;28;20031;-75
2022/08/07 09:46:47;;;;;;;5.28;4.55;;;;;;;25.92;39.70;93823.03;5065007;28;20115;-75
2022/08/07 09:49:39;;;;;;;5.38;3.97;;;;;;;25.94;39.52;93817.19;5066302;28;20605;-74
2022/08/07 09:52:29;;;;;;;4.93;4.13;;;;;;;26.03;39.29;93812.78;5036186;28;20033;-74
2022/08/07 09:55:01;;;;;;;6.85;4.35;;;;;;;25.75;39.72;93804.97;5061568;28;20438;-75
2022/08/07 09:57:51;;;;;;;4.97;4.30;;;;;;;25.65;39.36;93812.09;5062024;28;20542;-74
2022/08/07 10:00:23;;;;;;;5.85;4.50;;;;;;;25.35;39.60;93795.75;5059506;28;20190;-75
2022/08/07 10:03:30;;;;;;;8.07;4.32;;;;;;;25.37;40.25;93812.44;5044778;28;20055;-74
2022/08/07 10:06:20;;;;;;;6.22;5.03;;;;;;;25.64;39.81;93805.09;5054332;28;20116;-74
2022/08/07 10:09:03;;;;;;;6.30;4.95;;;;;;;25.74;40.21;93797.19;5056548;28;20021;-74
2022/08/07 10:11:50;;;;;;;8.40;4.68;;;;;;;25.89;39.18;93798.59;5060672;28;20111;-74
2022/08/07 10:14:34;;;;;;;4.30;3.72;;;;;;;25.96;39.08;93798.47;5058936;28;20043;-74
2022/08/07 10:17:15;;;;;;;8.30;4.68;;;;;;;25.99;37.59;93778.59;5064334;28;20430;-75
2022/08/07 10:20:08;;;;;;;3.67;3.35;;;;;;;25.87;38.36;93779.88;5061862;28;20119;-75
2022/08/07 10:23:11;;;;;;;8.23;4.57;;;;;;;26.02;38.44;93791.38;5056969;28;20055;-74
2022/08/07 10:25:54;;;;;;;4.57;4.00;;;;;;;26.12;38.89;93785.00;5065114;28;20024;-75
2022/08/07 10:28:35;;;;;;;5.68;4.05;;;;;;;26.13;38.97;93786.56;5060080;28;20401;-75
2022/08/07 10:31:28;;;;;;;4.95;4.35;;;;;;;26.20;38.56;93775.56;5062218;28;20099;-75
2022/08/07 10:34:06;;;;;;;5.68;5.07;;;;;;;26.31;38.34;93776.13;5065429;28;20060;-75
2022/08/07 10:36:57;;;;;;;6.32;4.75;;;;;;;26.33;38.46;93779.22;5049216;28;20320;-75
2022/08/07 10:39:28;;;;;;;5.18;4.18;;;;;;;26.32;37.79;93783.13;5049666;28;20029;-74
2022/08/07 10:42:08;;;;;;;5.90;4.78;;;;;;;26.29;37.93;93775.03;5048857;28;20039;-75
2022/08/07 10:44:59;;;;;;;5.95;4.43;;;;;;;26.22;38.13;93800.41;5054586;28;20020;-75
2022/08/07 10:47:39;;;;;;;5.32;4.20;;;;;;;25.93;38.65;93799.31;5040305;28;20036;-75
2022/08/07 10:50:11;;;;;;;8.38;4.43;;;;;;;25.91;38.71;93777.91;5043963;28;20035;-74
2022/08/07 10:53:00;;;;;;;5.20;4.15;;;;;;;26.12;38.51;93785.00;5066834;28;20495;-75
2022/08/07 10:55:31;;;;;;;5.97;4.95;;;;;;;25.89;38.84;93742.16;5066179;28;20036;-74
2022/08/07 10:58:38;;;;;;;5.72;4.70;;;;;;;26.24;38.79;93798.06;5064814;28;20070;-74
2022/08/07 11:01:36;;;;;;;7.65;4.43;;;;;;;26.25;38.72;93785.22;5035666;28;20078;-74
2022/08/07 11:04:22;;;;;;;6.47;5.60;;;;;;;26.22;39.27;93781.34;5048338;28;20056;-75
2022/08/07 11:07:24;;;;;;;5.18;4.45;;;;;;;26.30;39.18;93790.19;5062861;28;20502;-74
2022/08/07 11:09:56;;;;;;;6.50;4.85;;;;;;;26.30;38.98;93776.56;5061975;28;20648;-75
2022/08/07 11:12:33;;;;;;;4.85;4.25;;;;;;;26.34;39.19;93769.09;5044290;28;20028;-74
2022/08/07 11:15:08;;;;;;;5.55;4.47;;;;;;;26.51;39.02;93787.13;5045852;28;20427;-76
2022/08/07 11:17:48;;;;;;;6.45;4.60;;;;;;;26.46;39.09;93795.78;5062695;28;20023;-75
2022/08/07 11:20:36;;;;;;;6.25;4.53;;;;;;;26.46;38.90;93790.34;5061803;28;20085;-74
2022/08/07 11:23:13;;;;;;;7.88;5.32;;;;;;;26.39;38.70;93784.97;5047410;28;20019;-74
2022/08/07 11:25:53;;;;;;;5.45;4.85;;;;;;;26.31;39.34;93772.63;5059851;28;20031;-75
2022/08/07 11:28:35;;;;;;;5.05;4.28;;;;;;;26.21;39.70;93752.53;5047185;28;20024;-75
2022/08/07 11:31:12;;;;;;;6.72;5.20;;;;;;;26.22;39.10;93756.81;5063036;28;20119;-74
2022/08/07 11:33:50;;;;;;;5.10;4.53;;;;;;;26.42;38.46;93778.69;5061851;28;20438;-75
2022/08/07 11:36:49;;;;;;;5.07;4.18;;;;;;;26.23;39.55;93760.31;5064148;28;20020;-75
2022/08/07 11:39:30;;;;;;;6.80;4.85;;;;;;;26.12;38.81;93750.34;5061414;28;20499;-75
2022/08/07 11:42:28;;;;;;;5.00;3.97;;;;;;;26.17;39.20;93770.91;5061575;28;20484;-75
2022/08/07 11:45:08;;;;;;;6.40;4.32;;;;;;;25.98;39.97;93772.38;5058071;28;20040;-75
2022/08/07 11:48:17;;;;;;;9.52;5.43;;;;;;;25.86;39.93;93785.75;5062843;28;20040;-75
2022/08/07 11:51:07;;;;;;;7.10;5.15;;;;;;;25.69;40.57;93785.59;5004131;28;20039;-75
2022/08/07 11:54:09;;;;;;;6.13;5.50;;;;;;;25.60;41.67;93798.16;5062874;28;20507;-75
2022/08/07 11:57:07;;;;;;;5.68;5.07;;;;;;;25.37;42.60;93812.44;5064236;28;20568;-75
2022/08/07 11:59:35;;;;;;;6.93;5.15;;;;;;;25.32;42.15;93799.31;5065707;28;20025;-75
2022/08/07 12:02:55;;;;;;;8.48;5.65;;;;;;;25.45;42.68;93794.84;5058037;28;20048;-74
2022/08/07 12:05:42;;;;;;;7.43;5.68;;;;;;;25.56;41.45;93806.41;5001196;28;20040;-74
2022/08/07 12:08:19;;;;;;;9.32;6.20;;;;;;;25.70;41.38;93811.66;5062809;28;20063;-75